Time;durP1;ratioP1;P1;durP2;ratioP2;P2;SDS_P1;SDS_P2;PMS_P1;PMS_P2;Temp;Humidity;BMP_temperature;BMP_pressure;BME280_temperature;BME280_humidity;BME280_pressure;Samples;Min_cycle;Max_cycle;Signal;HPM_P1;HPM_P2
2022/07/18 00:01:28;;;;;;;3.40;1.77;;;;;;;24.83;45.11;100938.63;5089198;28;20166;-60
2022/07/18 00:03:54;;;;;;;3.47;1.80;;;;;;;24.83;44.74;100937.81;5090140;28;20194;-59
2022/07/18 00:06:19;;;;;;;5.30;2.27;;;;;;;24.81;44.49;100932.44;5089869;28;20293;-59
2022/07/18 00:08:45;;;;;;;6.07;2.17;;;;;;;24.82;44.66;100930.34;5089591;28;20692;-59
2022/07/18 00:11:10;;;;;;;2.90;1.53;;;;;;;24.82;44.77;100941.91;5089297;28;20179;-59
2022/07/18 00:13:35;;;;;;;4.10;2.00;;;;;;;24.81;44.85;100943.16;5090202;28;20175;-59
2022/07/18 00:16:01;;;;;;;4.30;1.97;;;;;;;24.81;44.72;100941.09;5089665;28;20166;-58
2022/07/18 00:18:26;;;;;;;5.30;1.63;;;;;;;24.79;44.79;100940.66;5090098;28;20185;-58
2022/07/18 00:20:52;;;;;;;3.77;1.90;;;;;;;24.79;44.45;100946.44;5089649;28;20162;-58
2022/07/18 00:23:17;;;;;;;4.50;2.00;;;;;;;24.79;44.56;100943.53;5089106;28;20180;-58
2022/07/18 00:25:42;;;;;;;5.50;2.47;;;;;;;24.79;44.70;100942.75;5088370;28;20550;-58
2022/07/18 00:28:11;;;;;;;5.13;2.50;;;;;;;24.77;44.51;100946.03;5087965;28;20202;-58
2022/07/18 00:30:36;;;;;;;3.13;1.50;;;;;;;24.78;44.76;100941.09;5088120;28;20633;-58
2022/07/18 00:33:01;;;;;;;7.97;2.60;;;;;;;24.78;44.92;100944.78;5087969;28;20427;-58
2022/07/18 00:35:27;;;;;;;4.63;2.00;;;;;;;24.78;44.80;100941.91;5087834;28;20266;-58
2022/07/18 00:37:52;;;;;;;3.47;1.80;;;;;;;24.78;44.79;100941.91;5086805;28;20175;-59
2022/07/18 00:40:18;;;;;;;3.77;2.20;;;;;;;24.78;44.89;100936.13;5087924;28;20178;-62
2022/07/18 00:42:43;;;;;;;3.60;2.10;;;;;;;24.78;44.65;100938.22;5087857;28;20178;-59
2022/07/18 00:45:09;;;;;;;3.40;1.87;;;;;;;24.79;44.92;100939.84;5086385;28;20257;-59
2022/07/18 00:47:34;;;;;;;5.23;2.10;;;;;;;24.77;44.70;100934.47;5087477;28;20717;-59
2022/07/18 00:50:02;;;;;;;4.20;2.13;;;;;;;24.77;44.64;100940.25;5087873;28;20182;-59
2022/07/18 00:52:28;;;;;;;5.47;2.00;;;;;;;24.76;44.69;100941.50;5088990;28;20235;-59
2022/07/18 00:54:53;;;;;;;5.13;1.80;;;;;;;24.76;44.71;100944.38;5089647;28;20412;-59
2022/07/18 00:57:18;;;;;;;3.67;1.70;;;;;;;24.76;44.65;100938.59;5089198;28;20174;-59
2022/07/18 01:02:28;;;;;;;3.30;1.73;;;;;;;24.76;44.69;100950.16;5089095;28;20273;-59
2022/07/18 01:04:54;;;;;;;3.00;1.70;;;;;;;24.75;44.58;100951.41;5089264;28;20421;-59
2022/07/18 01:07:19;;;;;;;7.33;1.87;;;;;;;24.75;44.80;100942.75;5088921;28;20210;-59
2022/07/18 01:09:45;;;;;;;4.03;1.80;;;;;;;24.75;44.32;100947.69;5087692;28;20601;-59
2022/07/18 01:12:10;;;;;;;2.93;1.87;;;;;;;24.74;44.70;100946.03;5089382;28;20649;-59
2022/07/18 01:14:35;;;;;;;3.70;2.00;;;;;;;24.73;44.50;100944.38;5071128;28;20202;-59
2022/07/18 01:17:01;;;;;;;4.30;2.00;;;;;;;24.71;44.47;100941.91;5070794;28;20660;-59
2022/07/18 01:19:26;;;;;;;3.43;2.13;;;;;;;24.73;44.46;100948.06;5089135;28;20232;-59
2022/07/18 01:21:52;;;;;;;4.67;2.20;;;;;;;24.73;44.64;100948.06;5089994;28;20174;-59
2022/07/18 01:24:17;;;;;;;4.97;2.30;;;;;;;24.71;44.13;100946.84;5093211;28;20193;-59
2022/07/18 01:26:43;;;;;;;3.30;1.90;;;;;;;24.69;44.35;100935.69;5092787;28;20701;-59
2022/07/18 01:29:08;;;;;;;4.00;1.90;;;;;;;24.68;44.21;100939.81;5093003;28;20162;-59
2022/07/18 01:31:33;;;;;;;3.23;1.90;;;;;;;24.68;44.44;100942.69;5093298;28;20516;-59
2022/07/18 01:34:00;;;;;;;4.23;1.97;;;;;;;24.68;44.54;100947.66;5092041;28;20185;-59
2022/07/18 01:36:25;;;;;;;6.60;2.10;;;;;;;24.67;44.25;100941.06;5091488;28;20174;-59
2022/07/18 01:38:51;;;;;;;4.30;2.03;;;;;;;24.68;44.43;100941.88;5091917;28;20416;-59
2022/07/18 01:41:16;;;;;;;3.10;2.10;;;;;;;24.67;44.45;100948.88;5091545;28;20178;-59
2022/07/18 01:43:41;;;;;;;4.33;2.23;;;;;;;24.67;44.55;100943.94;5092770;28;20174;-59
2022/07/18 01:46:08;;;;;;;2.97;1.90;;;;;;;24.67;44.42;100946.81;5092188;28;20174;-60
2022/07/18 01:48:37;;;;;;;4.20;2.37;;;;;;;24.67;44.37;100946.81;5093059;28;20182;-59
2022/07/18 01:51:02;;;;;;;4.50;1.73;;;;;;;24.65;44.31;100946.41;5092934;28;20424;-59
2022/07/18 01:53:28;;;;;;;6.90;2.50;;;;;;;24.63;44.07;100937.31;5092560;28;20983;-59
2022/07/18 01:55:53;;;;;;;4.57;2.30;;;;;;;24.62;43.92;100938.56;5092619;28;20476;-59
2022/07/18 01:58:18;;;;;;;3.97;2.00;;;;;;;24.63;44.21;100936.50;5092561;28;20173;-59
2022/07/18 02:00:44;;;;;;;3.57;2.37;;;;;;;24.63;44.45;100937.31;5092435;28;20177;-59
2022/07/18 02:03:09;;;;;;;3.53;1.90;;;;;;;24.64;44.33;100943.94;5092163;28;20190;-59
2022/07/18 02:05:35;;;;;;;3.60;2.00;;;;;;;24.63;44.37;100942.28;5091214;28;20178;-59
2022/07/18 02:08:00;;;;;;;6.23;2.30;;;;;;;24.64;44.41;100941.03;5091635;28;20694;-59
2022/07/18 02:10:26;;;;;;;4.27;1.83;;;;;;;24.62;44.29;100938.56;5092488;28;20182;-59
2022/07/18 02:12:51;;;;;;;6.43;2.23;;;;;;;24.61;44.12;100931.13;5091868;28;20571;-59
2022/07/18 02:15:16;;;;;;;4.80;2.10;;;;;;;24.61;44.63;100936.91;5092297;28;20167;-59
2022/07/18 02:17:42;;;;;;;3.70;1.50;;;;;;;24.62;44.42;100937.72;5092347;28;20215;-59
2022/07/18 02:20:10;;;;;;;6.33;2.50;;;;;;;24.62;44.15;100943.50;5092321;28;20196;-59
2022/07/18 02:22:35;;;;;;;4.50;1.93;;;;;;;24.60;44.59;100938.16;5092258;28;20232;-59
2022/07/18 02:25:01;;;;;;;3.20;1.63;;;;;;;24.61;44.52;100941.84;5092189;28;20416;-59
2022/07/18 02:27:26;;;;;;;3.63;1.90;;;;;;;24.60;44.59;100934.41;5091810;28;20247;-59
2022/07/18 02:29:52;;;;;;;2.90;1.70;;;;;;;24.60;44.39;100937.31;5092047;28;20590;-59
2022/07/18 02:32:17;;;;;;;4.13;1.80;;;;;;;24.59;44.48;100936.47;5091768;28;20617;-59
2022/07/18 02:34:46;;;;;;;3.23;1.60;;;;;;;24.59;44.46;100933.59;5091452;28;20178;-59
2022/07/18 02:37:12;;;;;;;4.07;1.80;;;;;;;24.59;44.64;100936.47;5092108;28;20201;-59
2022/07/18 02:39:37;;;;;;;3.73;1.90;;;;;;;24.59;44.44;100944.31;5090167;28;20416;-59
2022/07/18 02:42:03;;;;;;;3.97;2.03;;;;;;;24.57;44.64;100938.91;5089546;28;20601;-59
2022/07/18 02:44:28;;;;;;;3.23;1.77;;;;;;;24.57;44.84;100941.81;5090108;28;20657;-59
2022/07/18 02:46:54;;;;;;;3.80;2.10;;;;;;;24.57;44.58;100935.19;5090199;28;20252;-59
2022/07/18 02:49:29;;;;;;;3.00;1.80;;;;;;;24.56;44.63;100937.28;5090420;28;20486;-59
2022/07/18 02:51:59;;;;;;;6.13;1.80;;;;;;;24.57;44.62;100940.97;5088338;28;20227;-59
2022/07/18 02:54:25;;;;;;;3.43;1.77;;;;;;;24.56;44.68;100947.97;5089034;28;20420;-59
2022/07/18 02:56:50;;;;;;;3.40;1.77;;;;;;;24.55;44.64;100944.28;5089582;28;20912;-59
2022/07/18 02:59:16;;;;;;;8.30;2.03;;;;;;;24.55;44.59;100946.34;5089570;28;20174;-59
2022/07/18 03:01:41;;;;;;;3.70;1.67;;;;;;;24.55;44.62;100937.66;5089609;28;20178;-59
2022/07/18 03:04:06;;;;;;;3.90;2.20;;;;;;;24.54;44.45;100942.59;5088018;28;20483;-59
2022/07/18 03:06:32;;;;;;;4.20;2.20;;;;;;;24.53;44.76;100946.72;5088788;28;20518;-59
2022/07/18 03:08:57;;;;;;;3.80;1.80;;;;;;;24.52;44.54;100939.31;5088943;28;20256;-59
2022/07/18 03:11:23;;;;;;;6.20;2.00;;;;;;;24.53;44.52;100943.03;5089429;28;20174;-59
2022/07/18 03:13:48;;;;;;;4.20;2.23;;;;;;;24.52;44.64;100947.97;5089354;28;20235;-59
2022/07/18 03:16:13;;;;;;;3.27;1.87;;;;;;;24.52;44.57;100944.25;5089499;28;20178;-59
2022/07/18 03:18:39;;;;;;;6.27;2.63;;;;;;;24.52;44.74;100944.25;5090449;28;20169;-59
2022/07/18 03:21:04;;;;;;;4.00;2.10;;;;;;;24.50;44.46;100938.91;5091003;28;20559;-59
2022/07/18 03:23:30;;;;;;;4.07;2.40;;;;;;;24.50;44.64;100941.78;5090587;28;20170;-59
2022/07/18 03:25:55;;;;;;;6.07;2.30;;;;;;;24.51;44.42;100942.59;5091107;28;20175;-59
2022/07/18 03:28:21;;;;;;;3.70;1.90;;;;;;;24.49;44.54;100945.88;5089591;28;20556;-59
2022/07/18 03:30:46;;;;;;;4.43;2.33;;;;;;;24.49;44.33;100945.88;5089177;28;20167;-59
2022/07/18 03:33:11;;;;;;;5.63;2.47;;;;;;;24.47;44.31;100942.59;5089034;28;20201;-59
2022/07/18 03:35:37;;;;;;;5.20;2.40;;;;;;;24.46;44.08;100940.09;5089075;28;20186;-59
2022/07/18 03:38:02;;;;;;;5.73;2.57;;;;;;;24.46;44.47;100943.00;5088366;28;20253;-59
2022/07/18 03:40:28;;;;;;;4.60;2.30;;;;;;;24.45;44.57;100939.28;5088586;28;20263;-59
2022/07/18 03:42:53;;;;;;;6.30;2.70;;;;;;;24.45;44.53;100932.69;5088734;28;20232;-59
2022/07/18 03:45:19;;;;;;;4.03;2.27;;;;;;;24.45;44.70;100936.41;5089560;28;20235;-59
2022/07/18 03:47:44;;;;;;;3.60;1.90;;;;;;;24.45;44.71;100938.47;5090736;28;20213;-59
2022/07/18 03:50:09;;;;;;;4.20;2.13;;;;;;;24.46;44.89;100940.94;5089325;28;20178;-59
2022/07/18 03:52:35;;;;;;;5.03;2.43;;;;;;;24.44;44.39;100940.50;5088905;28;20174;-59
2022/07/18 03:55:01;;;;;;;4.77;2.27;;;;;;;24.44;44.32;100937.63;5087483;28;20182;-59
2022/07/18 03:57:27;;;;;;;4.07;2.17;;;;;;;24.42;44.78;100936.38;5087093;28;20940;-59
2022/07/18 03:59:52;;;;;;;4.70;2.23;;;;;;;24.41;44.15;100935.56;5087176;28;20432;-59
2022/07/18 04:02:18;;;;;;;3.90;2.10;;;;;;;24.38;44.19;100935.56;5088998;28;20263;-59
2022/07/18 04:04:43;;;;;;;7.57;2.33;;;;;;;24.36;44.39;100941.72;5087862;28;20182;-59
2022/07/18 04:07:09;;;;;;;6.97;2.70;;;;;;;24.36;44.41;100938.00;5088067;28;20200;-59
2022/07/18 04:09:34;;;;;;;4.47;2.50;;;;;;;24.37;44.60;100945.41;5088258;28;20676;-59
2022/07/18 04:11:59;;;;;;;4.40;2.87;;;;;;;24.37;44.61;100943.38;5090158;28;20178;-59
2022/07/18 04:14:25;;;;;;;5.20;2.47;;;;;;;24.38;44.75;100945.00;5089809;28;20181;-59
2022/07/18 04:16:50;;;;;;;4.03;2.30;;;;;;;24.39;44.64;100948.75;5090271;28;20175;-59
2022/07/18 04:19:17;;;;;;;4.57;2.37;;;;;;;24.39;44.77;100946.66;5089808;28;20174;-59
2022/07/18 04:21:42;;;;;;;7.40;3.00;;;;;;;24.38;44.84;100944.22;5090362;28;20178;-59
2022/07/18 04:24:08;;;;;;;9.73;3.10;;;;;;;24.38;44.69;100950.78;5089885;28;20428;-59
2022/07/18 04:26:33;;;;;;;7.33;3.03;;;;;;;24.37;44.52;100952.03;5089404;28;20234;-59
2022/07/18 04:28:59;;;;;;;5.87;2.60;;;;;;;24.37;44.66;100954.06;5089961;28;20174;-59
2022/07/18 04:31:24;;;;;;;6.77;2.50;;;;;;;24.36;44.62;100961.94;5089913;28;20534;-59
2022/07/18 04:33:50;;;;;;;4.87;2.50;;;;;;;24.37;44.85;100962.72;5089524;28;20178;-59
2022/07/18 04:36:15;;;;;;;4.10;2.50;;;;;;;24.38;45.05;100964.41;5089957;28;20174;-59
2022/07/18 04:38:41;;;;;;;5.90;2.50;;;;;;;24.39;44.51;100957.41;5089188;28;20178;-59
2022/07/18 04:41:06;;;;;;;6.20;2.60;;;;;;;24.40;44.80;100953.28;5089667;28;20174;-59
2022/07/18 04:43:32;;;;;;;4.60;2.50;;;;;;;24.40;44.70;100951.22;5089342;28;20202;-59
2022/07/18 04:45:57;;;;;;;5.70;3.30;;;;;;;24.41;44.62;100949.16;5089370;28;20178;-59
2022/07/18 04:48:23;;;;;;;4.30;2.60;;;;;;;24.41;44.56;100955.75;5089409;28;20750;-59
2022/07/18 04:50:48;;;;;;;4.37;2.73;;;;;;;24.43;44.52;100961.13;5089324;28;20188;-59
2022/07/18 04:53:13;;;;;;;5.97;2.80;;;;;;;24.44;44.64;100959.91;5089065;28;20177;-59
2022/07/18 04:55:39;;;;;;;4.43;2.37;;;;;;;24.44;44.72;100963.59;5088992;28;20183;-59
2022/07/18 04:58:04;;;;;;;7.93;2.40;;;;;;;24.44;44.56;100966.47;5089294;28;20177;-59
2022/07/18 05:00:30;;;;;;;5.33;3.03;;;;;;;24.43;44.74;100967.72;5089568;28;20481;-59
2022/07/18 05:02:56;;;;;;;5.63;2.70;;;;;;;24.44;44.37;100974.34;5089316;28;20587;-59
2022/07/18 05:05:21;;;;;;;5.10;2.70;;;;;;;24.45;44.23;100973.94;5088013;28;20182;-59
2022/07/18 05:07:47;;;;;;;4.40;2.23;;;;;;;24.45;44.66;100962.38;5089278;28;20463;-59
2022/07/18 05:10:14;;;;;;;4.63;2.70;;;;;;;24.43;44.77;100964.84;5088904;28;20218;-59
2022/07/18 05:12:40;;;;;;;4.50;2.50;;;;;;;24.41;44.82;100970.19;5089218;28;20175;-59
2022/07/18 05:15:10;;;;;;;6.80;2.97;;;;;;;24.40;44.68;100962.78;5089091;28;20416;-59
2022/07/18 05:17:35;;;;;;;5.00;3.30;;;;;;;24.39;44.90;100975.53;5089248;28;20495;-59
2022/07/18 05:20:01;;;;;;;7.00;3.37;;;;;;;24.37;44.82;100971.41;5089035;28;21106;-59
2022/07/18 05:22:26;;;;;;;4.87;2.43;;;;;;;24.36;45.10;100976.34;5087552;28;20171;-59
2022/07/18 05:24:52;;;;;;;5.00;2.97;;;;;;;24.36;45.11;100979.25;5088557;28;20174;-59
2022/07/18 05:27:17;;;;;;;5.20;3.10;;;;;;;24.37;45.19;100978.00;5087773;28;20194;-59
2022/07/18 05:29:42;;;;;;;4.80;3.13;;;;;;;24.37;45.14;100971.41;5087494;28;20547;-59
2022/07/18 05:32:08;;;;;;;4.10;3.00;;;;;;;24.37;45.26;100966.47;5087870;28;20178;-59
2022/07/18 05:34:34;;;;;;;5.70;3.10;;;;;;;24.39;45.22;100972.66;5088273;28;20603;-59
2022/07/18 05:36:59;;;;;;;5.30;2.97;;;;;;;24.39;45.36;100969.75;5088068;28;20612;-59
2022/07/18 05:39:25;;;;;;;5.80;3.27;;;;;;;24.39;44.96;100972.66;5088621;28;20253;-59
2022/07/18 05:41:51;;;;;;;10.87;3.30;;;;;;;24.35;45.02;100968.94;5087776;28;20174;-59
2022/07/18 05:44:19;;;;;;;6.50;3.60;;;;;;;24.34;45.71;100970.16;5087387;28;20174;-59
2022/07/18 05:46:45;;;;;;;10.73;3.20;;;;;;;24.36;45.73;100964.81;5088775;28;20455;-59
2022/07/18 05:49:11;;;;;;;10.20;3.57;;;;;;;24.35;45.55;100980.47;5088995;28;20503;-59
2022/07/18 05:51:36;;;;;;;4.97;3.33;;;;;;;24.35;45.66;100976.75;5088910;28;20178;-59
2022/07/18 05:54:01;;;;;;;5.60;3.57;;;;;;;24.34;45.41;100975.91;5088979;28;20174;-59
2022/07/18 05:56:27;;;;;;;6.57;4.03;;;;;;;24.34;45.33;100970.16;5088360;28;20652;-59
2022/07/18 05:58:52;;;;;;;7.53;3.90;;;;;;;24.33;45.06;100968.50;5089026;28;20182;-59
2022/07/18 06:01:19;;;;;;;7.53;3.93;;;;;;;24.32;45.05;100963.97;5088143;28;20189;-59
2022/07/18 06:03:46;;;;;;;14.40;4.60;;;;;;;24.32;45.27;100963.97;5088446;28;20217;-59
2022/07/18 06:06:12;;;;;;;10.63;4.40;;;;;;;24.31;44.98;100965.19;5088634;28;20740;-59
2022/07/18 06:08:37;;;;;;;8.90;3.73;;;;;;;24.29;44.92;100964.75;5088617;28;20472;-59
2022/07/18 06:11:03;;;;;;;7.10;3.90;;;;;;;24.32;44.95;100968.91;5091049;28;20186;-59
2022/07/18 06:13:30;;;;;;;10.70;4.50;;;;;;;24.34;44.97;100970.16;5091244;28;20244;-59
2022/07/18 06:15:55;;;;;;;6.57;3.70;;;;;;;24.37;45.07;100957.81;5090533;28;20175;-59
2022/07/18 06:18:20;;;;;;;9.50;4.10;;;;;;;24.39;44.89;100961.09;5090736;28;20431;-59
2022/07/18 06:20:46;;;;;;;14.77;4.60;;;;;;;24.41;45.16;100960.69;5090785;28;20629;-59
2022/07/18 06:23:11;;;;;;;7.37;3.83;;;;;;;24.41;45.08;100954.94;5090962;28;20684;-59
2022/07/18 06:25:37;;;;;;;11.60;4.17;;;;;;;24.39;44.94;100955.31;5092162;28;20171;-58
2022/07/18 06:28:02;;;;;;;6.90;3.40;;;;;;;24.38;45.15;100947.91;5091991;28;20194;-58
2022/07/18 06:30:28;;;;;;;7.10;3.43;;;;;;;24.36;45.21;100953.28;5091830;28;20196;-58
2022/07/18 06:32:53;;;;;;;5.43;3.30;;;;;;;24.36;45.06;100953.28;5091919;28;20634;-58
2022/07/18 06:35:18;;;;;;;7.20;3.50;;;;;;;24.35;45.33;100962.31;5090207;28;20196;-59
2022/07/18 06:37:44;;;;;;;6.33;3.43;;;;;;;24.33;45.22;100954.06;5090358;28;20220;-59
2022/07/18 06:40:10;;;;;;;7.20;3.20;;;;;;;24.33;45.50;100953.25;5089912;28;20186;-59
2022/07/18 06:42:35;;;;;;;8.30;3.50;;;;;;;24.32;45.34;100952.41;5089827;28;20582;-59
2022/07/18 06:45:01;;;;;;;6.97;3.40;;;;;;;24.32;45.16;100969.72;5090203;28;20166;-59
2022/07/18 06:47:26;;;;;;;7.23;3.60;;;;;;;24.33;45.14;100970.56;5089765;28;20194;-59
2022/07/18 06:49:51;;;;;;;6.63;3.30;;;;;;;24.33;45.00;100956.94;5090092;28;20181;-59
2022/07/18 06:52:17;;;;;;;9.33;3.30;;;;;;;24.33;45.04;100959.84;5091694;28;20178;-59
2022/07/18 06:54:42;;;;;;;6.60;3.77;;;;;;;24.32;44.76;100969.72;5091483;28;20171;-59
2022/07/18 06:57:10;;;;;;;7.37;2.93;;;;;;;24.34;45.04;100964.38;5091697;28;20162;-59
2022/07/18 06:59:36;;;;;;;9.57;3.37;;;;;;;24.24;45.39;100965.13;5091258;28;20204;-59
2022/07/18 07:02:02;;;;;;;5.23;3.13;;;;;;;24.29;44.93;100961.88;5091536;28;20819;-59
2022/07/18 07:04:27;;;;;;;5.57;2.63;;;;;;;24.33;44.94;100953.25;5091061;28;20209;-59
2022/07/18 07:06:53;;;;;;;6.87;3.00;;;;;;;24.35;45.05;100957.41;5091450;28;20225;-59
2022/07/18 07:09:18;;;;;;;5.80;3.10;;;;;;;24.33;44.93;100956.16;5091131;28;20218;-59
2022/07/18 07:11:44;;;;;;;8.37;3.30;;;;;;;24.29;44.67;100958.97;5091283;28;20231;-59
2022/07/18 07:14:09;;;;;;;8.40;3.20;;;;;;;24.30;45.16;100966.44;5091175;28;20174;-59
2022/07/18 07:16:34;;;;;;;7.80;3.60;;;;;;;24.32;45.11;100969.72;5091081;28;20186;-59
2022/07/18 07:19:00;;;;;;;10.70;3.60;;;;;;;24.27;45.15;100969.28;5091520;28;20174;-59
2022/07/18 07:21:25;;;;;;;4.53;2.67;;;;;;;24.25;44.99;100974.63;5090776;28;20235;-59
2022/07/18 07:23:51;;;;;;;6.90;3.70;;;;;;;24.29;45.19;100976.31;5091129;28;20257;-59
2022/07/18 07:26:16;;;;;;;8.00;3.00;;;;;;;24.28;44.72;100971.78;5090736;28;20190;-59
2022/07/18 07:28:42;;;;;;;6.80;3.00;;;;;;;24.28;44.68;100974.66;5090563;28;20210;-59
2022/07/18 07:31:07;;;;;;;8.37;3.43;;;;;;;24.28;44.73;100980.44;5090781;28;20614;-59
2022/07/18 07:33:33;;;;;;;7.57;3.40;;;;;;;24.28;44.62;100974.66;5090348;28;20190;-59
2022/07/18 07:35:59;;;;;;;6.70;3.27;;;;;;;24.30;45.07;100977.97;5088854;28;20179;-59
2022/07/18 07:38:28;;;;;;;14.30;3.40;;;;;;;24.22;45.15;100982.03;5087377;28;20170;-59
2022/07/18 07:40:54;;;;;;;5.73;3.40;;;;;;;24.27;45.10;100980.81;5088403;28;20761;-59
2022/07/18 07:43:19;;;;;;;9.40;3.83;;;;;;;24.13;45.06;100977.88;5086842;28;20427;-59
2022/07/18 07:45:48;;;;;;;8.43;3.63;;;;;;;24.23;45.13;100977.13;5088454;28;20591;-59
2022/07/18 07:48:14;;;;;;;12.73;3.00;;;;;;;24.27;45.15;100973.00;5088568;28;20229;-59
2022/07/18 07:50:40;;;;;;;6.83;3.10;;;;;;;24.29;44.82;100979.19;5088863;28;20412;-59
2022/07/18 07:53:05;;;;;;;6.73;3.53;;;;;;;24.21;45.37;100968.00;5088914;28;20420;-59
2022/07/18 07:55:31;;;;;;;9.40;3.60;;;;;;;24.19;45.41;100976.25;5089067;28;20251;-59
2022/07/18 07:57:56;;;;;;;8.60;3.40;;;;;;;24.19;45.45;100959.75;5088281;28;20175;-59
2022/07/18 08:00:22;;;;;;;10.03;3.30;;;;;;;24.19;45.46;100958.94;5088669;28;20171;-62
2022/07/18 08:02:57;;;;;;;11.50;4.00;;;;;;;24.24;45.37;100958.56;5088250;28;20209;-62
2022/07/18 08:05:23;;;;;;;8.37;3.23;;;;;;;24.24;45.57;100959.38;5088734;28;20181;-62
2022/07/18 08:07:49;;;;;;;6.00;2.80;;;;;;;24.13;46.00;100960.56;5088121;28;20459;-62
2022/07/18 08:10:14;;;;;;;6.50;2.90;;;;;;;24.17;47.27;100958.50;5088213;28;20226;-62
2022/07/18 08:12:40;;;;;;;5.60;3.27;;;;;;;24.25;46.77;100949.50;5088519;28;20255;-63
2022/07/18 08:15:05;;;;;;;8.30;3.43;;;;;;;24.29;46.81;100952.41;5088714;28;20178;-62
2022/07/18 08:17:31;;;;;;;9.33;3.00;;;;;;;24.35;46.90;100948.72;5088591;28;20618;-62
2022/07/18 08:19:56;;;;;;;4.47;2.60;;;;;;;24.39;46.06;100952.44;5088430;28;20155;-62
2022/07/18 08:22:22;;;;;;;9.50;3.00;;;;;;;24.36;44.82;100953.28;5088410;28;20189;-62
2022/07/18 08:24:47;;;;;;;6.37;3.23;;;;;;;24.42;46.29;100939.25;5088283;28;20185;-62
2022/07/18 08:27:13;;;;;;;8.07;3.00;;;;;;;24.34;45.97;100947.06;5088029;28;20205;-62
2022/07/18 08:29:39;;;;;;;5.10;3.10;;;;;;;24.39;45.47;100942.97;5089939;28;20178;-62
2022/07/18 08:32:04;;;;;;;7.50;2.93;;;;;;;24.45;44.92;100939.28;5089146;28;20415;-61
2022/07/18 08:34:30;;;;;;;5.57;3.30;;;;;;;24.49;45.56;100934.34;5088987;28;20268;-61
2022/07/18 08:36:56;;;;;;;6.47;2.53;;;;;;;24.52;45.40;100942.19;5087339;28;20396;-61
2022/07/18 08:39:21;;;;;;;9.73;2.87;;;;;;;24.56;44.79;100927.78;5087238;28;20428;-61
2022/07/18 08:41:46;;;;;;;8.17;2.80;;;;;;;24.52;44.53;100932.69;5087602;28;20245;-61
2022/07/18 08:44:12;;;;;;;7.70;2.50;;;;;;;24.47;43.39;100935.97;5087719;28;20182;-61
2022/07/18 08:46:41;;;;;;;30.80;14.97;;;;;;;24.47;45.06;100931.03;5088221;28;20216;-61
2022/07/18 08:49:07;;;;;;;86.03;39.30;;;;;;;24.49;44.00;100928.56;5088336;28;20768;-61
2022/07/18 08:51:34;;;;;;;114.80;48.17;;;;;;;24.47;44.46;100919.50;5086588;28;20866;-61
2022/07/18 08:54:00;;;;;;;68.77;27.77;;;;;;;24.51;43.75;100925.28;5087727;28;20911;-61
2022/07/18 08:56:25;;;;;;;34.47;16.60;;;;;;;24.51;43.31;100929.00;5086644;28;20462;-61
2022/07/18 08:58:50;;;;;;;34.77;14.90;;;;;;;24.52;43.92;100924.03;5087794;28;20178;-61
2022/07/18 09:01:16;;;;;;;29.43;13.13;;;;;;;24.50;43.61;100927.34;5087683;28;20174;-61
2022/07/18 09:03:41;;;;;;;23.90;11.87;;;;;;;24.49;43.34;100928.56;5088744;28;20186;-61
2022/07/18 09:06:09;;;;;;;41.27;17.00;;;;;;;24.50;44.00;100918.69;5089503;28;20198;-61
2022/07/18 09:08:34;;;;;;;37.93;17.80;;;;;;;24.54;43.58;100925.28;5088944;28;20289;-62
2022/07/18 09:11:03;;;;;;;20.63;10.07;;;;;;;24.57;43.65;100924.47;5089474;28;20902;-62
2022/07/18 09:13:39;;;;;;;26.23;12.07;;;;;;;24.57;43.61;100926.53;5088965;28;20210;-62
2022/07/18 09:16:13;;;;;;;18.40;8.37;;;;;;;24.59;43.72;100921.22;5089205;28;20451;-62
2022/07/18 09:18:39;;;;;;;16.53;7.47;;;;;;;24.60;43.64;100915.06;5089306;28;20544;-62
2022/07/18 09:21:08;;;;;;;22.47;9.30;;;;;;;24.58;44.14;100920.38;5087532;28;20425;-62
2022/07/18 09:23:36;;;;;;;14.80;6.50;;;;;;;24.62;43.60;100918.34;5087371;28;20485;-62
2022/07/18 09:26:02;;;;;;;14.27;7.37;;;;;;;24.61;43.33;100921.63;5087134;28;20405;-62
2022/07/18 09:28:28;;;;;;;13.87;5.30;;;;;;;24.64;43.40;100917.94;5086884;28;20464;-62
2022/07/18 09:30:54;;;;;;;12.07;5.80;;;;;;;24.63;43.92;100922.88;5087223;28;20960;-62
2022/07/18 09:33:21;;;;;;;13.53;5.10;;;;;;;24.63;43.66;100916.28;5086971;28;20189;-62
2022/07/18 09:35:46;;;;;;;14.10;6.00;;;;;;;24.65;44.35;100920.44;5087802;28;20175;-62
2022/07/18 09:38:14;;;;;;;19.73;4.93;;;;;;;24.70;43.44;100919.19;5088351;28;20424;-62
2022/07/18 09:40:47;;;;;;;12.70;6.17;;;;;;;24.68;43.92;100918.78;5087774;28;20666;-62
2022/07/18 09:43:14;;;;;;;13.67;5.57;;;;;;;24.68;44.00;100915.91;5087352;28;20987;-62
2022/07/18 09:45:44;;;;;;;14.13;6.60;;;;;;;24.69;44.08;100912.56;5091226;28;20424;-62
2022/07/18 09:48:15;;;;;;;11.10;5.63;;;;;;;24.67;44.16;100915.06;5090970;28;20462;-62
2022/07/18 09:51:03;;;;;;;12.23;5.57;;;;;;;24.69;44.31;100914.66;5091460;28;20415;-62
2022/07/18 09:53:41;;;;;;;10.90;5.43;;;;;;;24.69;44.24;100912.56;5090893;28;20508;-62
2022/07/18 09:56:11;;;;;;;12.23;4.30;;;;;;;24.77;43.76;100908.47;5092802;28;20400;-62
2022/07/18 09:58:51;;;;;;;10.10;4.70;;;;;;;24.80;43.16;100904.78;5090901;28;20416;-62
2022/07/18 10:01:16;;;;;;;9.13;4.20;;;;;;;24.78;43.30;100907.25;5092302;28;20942;-62
2022/07/18 10:03:41;;;;;;;13.43;4.63;;;;;;;24.80;43.59;100909.72;5092180;28;20439;-62
2022/07/18 10:06:07;;;;;;;10.63;4.30;;;;;;;24.79;43.22;100903.13;5092405;28;20186;-62
2022/07/18 10:08:33;;;;;;;8.90;4.00;;;;;;;24.80;42.18;100907.69;5092376;28;20226;-62
2022/07/18 10:10:59;;;;;;;6.60;3.83;;;;;;;24.81;42.53;100908.50;5091844;28;20190;-62
2022/07/18 10:13:25;;;;;;;5.90;3.67;;;;;;;24.85;42.42;100907.28;5092366;28;20428;-62
2022/07/18 10:15:51;;;;;;;7.97;3.50;;;;;;;24.90;41.75;100904.00;5091913;28;20778;-62
2022/07/18 10:18:21;;;;;;;12.00;3.57;;;;;;;24.86;41.30;100903.16;5090372;28;20419;-62
2022/07/18 10:21:13;;;;;;;5.97;3.50;;;;;;;24.86;41.96;100902.31;5090569;28;20213;-62
2022/07/18 10:23:39;;;;;;;5.77;3.20;;;;;;;24.86;42.58;100903.16;5088653;28;20455;-62
2022/07/18 10:26:08;;;;;;;11.43;3.70;;;;;;;24.88;42.30;100905.63;5090223;28;20474;-62
2022/07/18 10:28:33;;;;;;;7.00;3.33;;;;;;;24.94;41.80;100899.00;5090078;28;20479;-62
2022/07/18 10:31:15;;;;;;;5.83;2.93;;;;;;;24.94;41.93;100896.13;5092157;28;20420;-62
2022/07/18 10:33:48;;;;;;;5.90;2.90;;;;;;;24.95;42.10;100894.91;5091871;28;20201;-62
2022/07/18 10:36:18;;;;;;;6.57;2.90;;;;;;;24.92;42.80;100889.94;5092065;28;20422;-62
2022/07/18 10:39:20;;;;;;;6.20;2.90;;;;;;;24.99;42.00;100889.94;5091733;28;20417;-62
2022/07/18 10:41:46;;;;;;;6.23;2.90;;;;;;;24.98;42.11;100876.75;5091848;28;20798;-62
2022/07/18 10:44:23;;;;;;;13.80;3.20;;;;;;;24.97;42.22;100877.16;5091634;28;20923;-62
2022/07/18 10:47:20;;;;;;;9.47;2.60;;;;;;;25.03;42.01;100879.22;5091439;28;20182;-62
2022/07/18 10:49:56;;;;;;;7.30;2.43;;;;;;;25.07;42.52;100880.06;5091970;28;20423;-62
2022/07/18 10:52:24;;;;;;;4.57;2.50;;;;;;;25.05;42.32;100870.97;5091574;28;20415;-62
2022/07/18 10:55:17;;;;;;;8.90;2.40;;;;;;;25.05;42.60;100870.16;5090738;28;20427;-62
2022/07/18 10:57:48;;;;;;;8.10;2.53;;;;;;;25.09;42.24;100871.78;5091775;28;20404;-62
2022/07/18 11:00:14;;;;;;;8.00;2.47;;;;;;;25.11;42.03;100863.56;5091698;28;20478;-62
2022/07/18 11:02:41;;;;;;;6.57;2.97;;;;;;;25.16;41.66;100865.19;5091438;28;20451;-62
2022/07/18 11:05:42;;;;;;;3.50;2.30;;;;;;;25.15;41.79;100866.44;5091269;28;20433;-62
2022/07/18 11:08:12;;;;;;;5.40;2.43;;;;;;;25.26;40.67;100865.25;5079151;28;20510;-62
2022/07/18 11:10:40;;;;;;;5.93;2.17;;;;;;;25.20;40.44;100849.53;5091370;28;20405;-62
2022/07/18 11:13:24;;;;;;;9.50;2.10;;;;;;;25.12;41.60;100859.41;5090992;28;20891;-62
2022/07/18 11:16:02;;;;;;;6.97;2.43;;;;;;;25.16;41.01;100857.34;5089696;28;20412;-62
2022/07/18 11:18:27;;;;;;;4.43;2.37;;;;;;;25.13;40.85;100855.28;5089668;28;20590;-62
2022/07/18 11:20:53;;;;;;;3.70;2.10;;;;;;;25.19;40.69;100858.59;5089854;28;20420;-62
2022/07/18 11:23:20;;;;;;;4.43;1.80;;;;;;;25.23;40.57;100851.56;5089488;28;20670;-62
2022/07/18 11:25:50;;;;;;;4.33;2.13;;;;;;;25.21;40.68;100845.38;5089380;28;20194;-62